Ulan Bator, Mongolia
Current Conditions -  °F | °C
As of 2:00 AM on Friday 24 Oct 2014 (Local Time) from ZMUB Reporting Station
Clear Clear  
Wind Chill: -3°   Ceiling: Unl
Heat Index: -3°   Visibility: 6mi
Dew Point: -6°   Wind: 2mph
Humidity: 80%   Direction: NA
Pressure: 29.77"   Gusts: NA
Location:  47.92°N, 106.91°E
Report Text: ZMUB 231800Z VRB01MPS CAVOK M03/M06 Q1008 NOSIG RMK QFE649.8 78
Loading
Personal Weather Stations






























Interactive Weather Map
Tropical Storm Tracking
New forecast layout! Learn more

10-Day Weather Forecast

Advertisements
Track Severe Weather on mobile